South Starksboro, Vermont
Current Conditions -  °F | °C
As of 3:55 AM on Saturday 22 Nov 2014 (Local Time) from K6B0 Reporting Station
Scattered Clouds Scattered Clouds  
Wind Chill: 14°   Ceiling: Unl
Heat Index: 22°   Visibility: 10mi
Dew Point: 14°   Wind: 7mph
Humidity: 72%   Direction: 170°S
Pressure: 30.32"   Gusts: NA
Location:  44.2287°N, 72.9928°W
Report Text: K6B0 220855Z AUTO 17006KT 10SM SCT039 M05/M10 A3032 RMK AO2 T10551098
Loading
Personal Weather Stations






























Interactive Weather Map New forecast layout! Learn more

10-Day Weather Forecast

Advertisements
Track Severe Weather on mobile